sensor_id;sensor_type;location;lat;lon;timestamp;pressure;altitude;pressure_sealevel;temperature;humidity
51123;BME280;37162;41.724;13.346;2022-12-26T00:01:11;97686.34;;;16.78;68.54
51123;BME280;37162;41.724;13.346;2022-12-26T00:03:37;97686.34;;;16.78;68.59
51123;BME280;37162;41.724;13.346;2022-12-26T00:06:04;97676.47;;;16.72;68.57
51123;BME280;37162;41.724;13.346;2022-12-26T00:08:35;97690.06;;;16.77;68.81
51123;BME280;37162;41.724;13.346;2022-12-26T00:11:00;97678.28;;;16.65;68.95
51123;BME280;37162;41.724;13.346;2022-12-26T00:13:26;97687.59;;;16.76;68.79
51123;BME280;37162;41.724;13.346;2022-12-26T00:15:51;97686.16;;;16.73;68.73
51123;BME280;37162;41.724;13.346;2022-12-26T00:18:17;97691.13;;;16.76;69.13
51123;BME280;37162;41.724;13.346;2022-12-26T00:20:42;97693.78;;;16.76;68.82
51123;BME280;37162;41.724;13.346;2022-12-26T00:23:07;97695.66;;;16.76;68.56
51123;BME280;37162;41.724;13.346;2022-12-26T00:25:33;97695.66;;;16.76;68.54
51123;BME280;37162;41.724;13.346;2022-12-26T00:27:58;97695.66;;;16.76;68.81
51123;BME280;37162;41.724;13.346;2022-12-26T00:30:24;97696.47;;;16.76;69.09
51123;BME280;37162;41.724;13.346;2022-12-26T00:32:49;97676.44;;;16.66;68.90
51123;BME280;37162;41.724;13.346;2022-12-26T00:35:15;97703.72;;;16.76;68.82
51123;BME280;37162;41.724;13.346;2022-12-26T00:37:40;97704.53;;;16.76;68.66
51123;BME280;37162;41.724;13.346;2022-12-26T00:40:06;97702.88;;;16.75;68.76
51123;BME280;37162;41.724;13.346;2022-12-26T00:42:32;97705.34;;;16.77;68.69
51123;BME280;37162;41.724;13.346;2022-12-26T00:44:57;97707.22;;;16.76;68.55
51123;BME280;37162;41.724;13.346;2022-12-26T00:47:22;97702.88;;;16.75;68.56
51123;BME280;37162;41.724;13.346;2022-12-26T00:49:48;97705.56;;;16.75;68.62
51123;BME280;37162;41.724;13.346;2022-12-26T00:52:13;97701.84;;;16.76;68.76
51123;BME280;37162;41.724;13.346;2022-12-26T00:54:39;97701.84;;;16.76;68.75
51123;BME280;37162;41.724;13.346;2022-12-26T00:57:04;97707.22;;;16.76;68.94
51123;BME280;37162;41.724;13.346;2022-12-26T00:59:29;97703.50;;;16.77;68.92
51123;BME280;37162;41.724;13.346;2022-12-26T01:01:55;97696.06;;;16.73;69.11
51123;BME280;37162;41.724;13.346;2022-12-26T01:04:20;97707.81;;;16.78;69.15
51123;BME280;37162;41.724;13.346;2022-12-26T01:06:46;97700.19;;;16.75;69.23
51123;BME280;37162;41.724;13.346;2022-12-26T01:09:11;97706.19;;;16.77;69.17
51123;BME280;37162;41.724;13.346;2022-12-26T01:11:38;97704.31;;;16.78;69.03
51123;BME280;37162;41.724;13.346;2022-12-26T01:14:15;97698.94;;;16.78;68.99
51123;BME280;37162;41.724;13.346;2022-12-26T01:16:42;97698.34;;;16.76;68.98
51123;BME280;37162;41.724;13.346;2022-12-26T01:19:08;97708.84;;;16.77;68.87
51123;BME280;37162;41.724;13.346;2022-12-26T01:21:34;97703.50;;;16.77;68.89
51123;BME280;37162;41.724;13.346;2022-12-26T01:24:00;97708.84;;;16.77;68.63
51123;BME280;37162;41.724;13.346;2022-12-26T01:26:25;97712.38;;;16.78;68.80
51123;BME280;37162;41.724;13.346;2022-12-26T01:28:51;97716.91;;;16.77;68.67
51123;BME280;37162;41.724;13.346;2022-12-26T01:31:17;97704.31;;;16.71;68.83
51123;BME280;37162;41.724;13.346;2022-12-26T01:33:43;97714.44;;;16.76;68.58
51123;BME280;37162;41.724;13.346;2022-12-26T01:36:09;97716.09;;;16.77;68.64
51123;BME280;37162;41.724;13.346;2022-12-26T01:38:34;97710.72;;;16.77;68.54
51123;BME280;37162;41.724;13.346;2022-12-26T01:41:00;97698.31;;;16.69;68.67
51123;BME280;37162;41.724;13.346;2022-12-26T01:44:05;97717.94;;;16.76;68.74
51123;BME280;37162;41.724;13.346;2022-12-26T01:46:39;97714.22;;;16.77;68.67
51123;BME280;37162;41.724;13.346;2022-12-26T01:49:15;97712.16;;;16.73;68.72
51123;BME280;37162;41.724;13.346;2022-12-26T01:51:45;97721.44;;;16.77;68.62
51123;BME280;37162;41.724;13.346;2022-12-26T01:54:18;97722.50;;;16.76;68.99
51123;BME280;37162;41.724;13.346;2022-12-26T01:56:45;97716.31;;;16.75;69.06
51123;BME280;37162;41.724;13.346;2022-12-26T01:59:21;97717.94;;;16.76;68.83
51123;BME280;37162;41.724;13.346;2022-12-26T02:01:50;97717.13;;;16.76;68.91
51123;BME280;37162;41.724;13.346;2022-12-26T02:04:19;97710.94;;;16.75;68.86
51123;BME280;37162;41.724;13.346;2022-12-26T02:07:05;97709.25;;;16.74;68.94
51123;BME280;37162;41.724;13.346;2022-12-26T02:09:31;97706.56;;;16.74;68.75
51123;BME280;37162;41.724;13.346;2022-12-26T02:12:20;97710.94;;;16.75;68.78
51123;BME280;37162;41.724;13.346;2022-12-26T02:14:48;97699.97;;;16.70;68.87
51123;BME280;37162;41.724;13.346;2022-12-26T02:17:14;97693.38;;;16.66;68.98
51123;BME280;37162;41.724;13.346;2022-12-26T02:20:23;97699.56;;;16.67;69.14
51123;BME280;37162;41.724;13.346;2022-12-26T02:32:10;97706.97;;;16.71;68.48
51123;BME280;37162;41.724;13.346;2022-12-26T02:43:26;97696.06;;;16.73;68.37
51123;BME280;37162;41.724;13.346;2022-12-26T02:46:10;97704.13;;;16.73;68.57
51123;BME280;37162;41.724;13.346;2022-12-26T02:49:47;97700.59;;;16.72;68.81
51123;BME280;37162;41.724;13.346;2022-12-26T02:51:55;97706.78;;;16.73;68.92
51123;BME280;37162;41.724;13.346;2022-12-26T02:55:00;97704.94;;;16.73;69.04
51123;BME280;37162;41.724;13.346;2022-12-26T02:57:57;97704.94;;;16.73;69.08
51123;BME280;37162;41.724;13.346;2022-12-26T03:00:44;97704.94;;;16.73;68.98
51123;BME280;37162;41.724;13.346;2022-12-26T03:03:31;97702.25;;;16.73;69.12
51123;BME280;37162;41.724;13.346;2022-12-26T03:06:21;97704.72;;;16.75;69.25
51123;BME280;37162;41.724;13.346;2022-12-26T03:09:11;97708.44;;;16.74;69.11
51123;BME280;37162;41.724;13.346;2022-12-26T03:12:02;97706.78;;;16.73;68.59
51123;BME280;37162;41.724;13.346;2022-12-26T03:15:02;97707.63;;;16.73;68.67
51123;BME280;37162;41.724;13.346;2022-12-26T03:17:46;97700.38;;;16.74;68.60
51123;BME280;37162;41.724;13.346;2022-12-26T03:20:26;97689.22;;;16.64;68.63
51123;BME280;37162;41.724;13.346;2022-12-26T03:22:54;97702.25;;;16.73;68.53
51123;BME280;37162;41.724;13.346;2022-12-26T03:25:44;97701.22;;;16.74;68.70
51123;BME280;37162;41.724;13.346;2022-12-26T03:28:31;97701.22;;;16.74;68.65
51123;BME280;37162;41.724;13.346;2022-12-26T03:30:59;97703.06;;;16.74;68.65
51123;BME280;37162;41.724;13.346;2022-12-26T03:33:34;97703.91;;;16.74;68.59
51123;BME280;37162;41.724;13.346;2022-12-26T03:39:43;97690.47;;;16.74;68.77
51123;BME280;37162;41.724;13.346;2022-12-26T03:48:26;97700.59;;;16.72;69.22
51123;BME280;37162;41.724;13.346;2022-12-26T03:51:24;97706.56;;;16.74;69.13
51123;BME280;37162;41.724;13.346;2022-12-26T03:54:22;97704.72;;;16.75;69.17
51123;BME280;37162;41.724;13.346;2022-12-26T03:57:13;97710.94;;;16.75;69.10
51123;BME280;37162;41.724;13.346;2022-12-26T04:00:03;97696.06;;;16.66;68.83
51123;BME280;37162;41.724;13.346;2022-12-26T04:02:51;97707.41;;;16.75;68.89
51123;BME280;37162;41.724;13.346;2022-12-26T04:05:37;97712.75;;;16.75;68.76
51123;BME280;37162;41.724;13.346;2022-12-26T04:08:41;97711.94;;;16.74;68.79
51123;BME280;37162;41.724;13.346;2022-12-26T04:11:28;97707.63;;;16.73;68.80
51123;BME280;37162;41.724;13.346;2022-12-26T04:17:47;97710.31;;;16.73;68.79
51123;BME280;37162;41.724;13.346;2022-12-26T04:20:45;97712.16;;;16.73;68.93
51123;BME280;37162;41.724;13.346;2022-12-26T04:23:39;97716.72;;;16.72;68.53
51123;BME280;37162;41.724;13.346;2022-12-26T04:26:39;97714.03;;;16.72;68.53
51123;BME280;37162;41.724;13.346;2022-12-26T04:29:25;97722.25;;;16.71;68.62
51123;BME280;37162;41.724;13.346;2022-12-26T04:32:24;97715.88;;;16.72;68.44
51123;BME280;37162;41.724;13.346;2022-12-26T04:38:14;97723.94;;;16.72;68.51
51123;BME280;37162;41.724;13.346;2022-12-26T04:41:00;97726.81;;;16.70;69.09
51123;BME280;37162;41.724;13.346;2022-12-26T04:43:45;97736.50;;;16.71;68.94
51123;BME280;37162;41.724;13.346;2022-12-26T04:46:36;97731.75;;;16.67;68.85
51123;BME280;37162;41.724;13.346;2022-12-26T04:49:05;97739.19;;;16.71;68.78
51123;BME280;37162;41.724;13.346;2022-12-26T04:51:49;97728.03;;;16.61;68.75
51123;BME280;37162;41.724;13.346;2022-12-26T04:54:16;97738.38;;;16.71;68.74
51123;BME280;37162;41.724;13.346;2022-12-26T04:56:41;97748.28;;;16.70;68.85
51123;BME280;37162;41.724;13.346;2022-12-26T04:59:07;97743.72;;;16.71;68.76
51123;BME280;37162;41.724;13.346;2022-12-26T05:01:32;97735.47;;;16.66;68.85
51123;BME280;37162;41.724;13.346;2022-12-26T05:04:18;97747.41;;;16.70;69.01
51123;BME280;37162;41.724;13.346;2022-12-26T05:07:04;97748.47;;;16.69;68.67
51123;BME280;37162;41.724;13.346;2022-12-26T05:09:51;97760.84;;;16.70;68.80
51123;BME280;37162;41.724;13.346;2022-12-26T05:12:18;97747.66;;;16.61;68.81
51123;BME280;37162;41.724;13.346;2022-12-26T05:14:43;97755.47;;;16.63;68.69
51123;BME280;37162;41.724;13.346;2022-12-26T05:17:10;97767.88;;;16.71;68.87
51123;BME280;37162;41.724;13.346;2022-12-26T05:19:55;97762.69;;;16.69;68.68
51123;BME280;37162;41.724;13.346;2022-12-26T05:22:41;97747.84;;;16.60;68.61
51123;BME280;37162;41.724;13.346;2022-12-26T05:25:29;97778.78;;;16.69;68.61
51123;BME280;37162;41.724;13.346;2022-12-26T05:28:14;97768.06;;;16.69;68.71
51123;BME280;37162;41.724;13.346;2022-12-26T05:30:58;97771.56;;;16.70;68.96
51123;BME280;37162;41.724;13.346;2022-12-26T05:33:24;97766.19;;;16.70;68.76
51123;BME280;37162;41.724;13.346;2022-12-26T05:36:08;97776.94;;;16.70;68.95
51123;BME280;37162;41.724;13.346;2022-12-26T05:38:35;97778.59;;;16.71;68.99
51123;BME280;37162;41.724;13.346;2022-12-26T05:41:00;97781.28;;;16.71;68.94
51123;BME280;37162;41.724;13.346;2022-12-26T05:43:26;97778.59;;;16.71;68.99
51123;BME280;37162;41.724;13.346;2022-12-26T05:45:51;97780.47;;;16.70;68.96
51123;BME280;37162;41.724;13.346;2022-12-26T05:48:17;97783.16;;;16.70;68.94
51123;BME280;37162;41.724;13.346;2022-12-26T05:50:42;97785.84;;;16.70;68.97
51123;BME280;37162;41.724;13.346;2022-12-26T05:53:08;97775.47;;;16.60;69.20
51123;BME280;37162;41.724;13.346;2022-12-26T05:55:33;97786.03;;;16.69;68.77
51123;BME280;37162;41.724;13.346;2022-12-26T05:57:59;97786.03;;;16.69;68.84
51123;BME280;37162;41.724;13.346;2022-12-26T06:00:25;97790.56;;;16.68;68.69
51123;BME280;37162;41.724;13.346;2022-12-26T06:02:51;97796.75;;;16.69;68.71
51123;BME280;37162;41.724;13.346;2022-12-26T06:05:17;97782.72;;;16.60;68.77
51123;BME280;37162;41.724;13.346;2022-12-26T06:07:42;97797.78;;;16.68;68.67
51123;BME280;37162;41.724;13.346;2022-12-26T06:10:08;97789.13;;;16.59;68.52
51123;BME280;37162;41.724;13.346;2022-12-26T06:12:33;97798.00;;;16.66;68.71
51123;BME280;37162;41.724;13.346;2022-12-26T06:14:59;97797.19;;;16.66;68.57
51123;BME280;37162;41.724;13.346;2022-12-26T06:17:25;97794.25;;;16.60;68.43
51123;BME280;37162;41.724;13.346;2022-12-26T06:19:50;97797.38;;;16.64;68.54
51123;BME280;37162;41.724;13.346;2022-12-26T06:22:16;97796.34;;;16.65;68.63
51123;BME280;37162;41.724;13.346;2022-12-26T06:24:41;97802.72;;;16.64;68.64
51123;BME280;37162;41.724;13.346;2022-12-26T06:27:06;97801.91;;;16.64;68.60
51123;BME280;37162;41.724;13.346;2022-12-26T06:29:32;97797.38;;;16.57;68.53
51123;BME280;37162;41.724;13.346;2022-12-26T06:31:57;97807.50;;;16.62;68.71
51123;BME280;37162;41.724;13.346;2022-12-26T06:34:23;97801.91;;;16.64;68.62
51123;BME280;37162;41.724;13.346;2022-12-26T06:36:48;97798.41;;;16.63;68.66
51123;BME280;37162;41.724;13.346;2022-12-26T06:39:14;97805.41;;;16.64;68.64
51123;BME280;37162;41.724;13.346;2022-12-26T06:41:39;97804.81;;;16.62;68.61
51123;BME280;37162;41.724;13.346;2022-12-26T06:44:05;97809.13;;;16.63;68.53
51123;BME280;37162;41.724;13.346;2022-12-26T06:46:30;97800.25;;;16.56;68.49
51123;BME280;37162;41.724;13.346;2022-12-26T06:48:55;97817.19;;;16.63;68.42
51123;BME280;37162;41.724;13.346;2022-12-26T06:51:23;97806.25;;;16.58;68.60
51123;BME280;37162;41.724;13.346;2022-12-26T06:53:50;97818.22;;;16.62;68.55
51123;BME280;37162;41.724;13.346;2022-12-26T06:56:18;97817.41;;;16.61;68.48
51123;BME280;37162;41.724;13.346;2022-12-26T06:58:44;97820.09;;;16.61;68.43
51123;BME280;37162;41.724;13.346;2022-12-26T07:01:12;97821.94;;;16.61;68.65
51123;BME280;37162;41.724;13.346;2022-12-26T07:03:38;97824.63;;;16.61;68.49
51123;BME280;37162;41.724;13.346;2022-12-26T07:06:20;97832.69;;;16.61;68.54
51123;BME280;37162;41.724;13.346;2022-12-26T07:08:46;97835.38;;;16.61;68.46
51123;BME280;37162;41.724;13.346;2022-12-26T07:11:13;97842.38;;;16.62;68.63
51123;BME280;37162;41.724;13.346;2022-12-26T07:13:40;97841.56;;;16.61;68.53
51123;BME280;37162;41.724;13.346;2022-12-26T07:16:05;97846.91;;;16.61;68.63
51123;BME280;37162;41.724;13.346;2022-12-26T07:18:31;97852.06;;;16.63;68.67
51123;BME280;37162;41.724;13.346;2022-12-26T07:20:56;97853.94;;;16.63;68.61
51123;BME280;37162;41.724;13.346;2022-12-26T07:23:22;97853.94;;;16.63;68.72
51123;BME280;37162;41.724;13.346;2022-12-26T07:25:47;97858.47;;;16.62;68.66
51123;BME280;37162;41.724;13.346;2022-12-26T07:28:14;97866.31;;;16.64;68.80
51123;BME280;37162;41.724;13.346;2022-12-26T07:30:45;97849.56;;;16.55;68.73
51123;BME280;37162;41.724;13.346;2022-12-26T07:33:10;97865.47;;;16.63;68.81
51123;BME280;37162;41.724;13.346;2022-12-26T07:35:36;97872.72;;;16.63;69.01
51123;BME280;37162;41.724;13.346;2022-12-26T07:38:01;97860.94;;;16.64;68.85
51123;BME280;37162;41.724;13.346;2022-12-26T07:40:27;97864.88;;;16.61;68.88
51123;BME280;37162;41.724;13.346;2022-12-26T07:42:53;97871.47;;;16.65;68.97
51123;BME280;37162;41.724;13.346;2022-12-26T07:45:19;97870.63;;;16.65;68.82
51123;BME280;37162;41.724;13.346;2022-12-26T07:47:44;97884.06;;;16.65;68.75
51123;BME280;37162;41.724;13.346;2022-12-26T07:50:10;97867.75;;;16.59;68.82
51123;BME280;37162;41.724;13.346;2022-12-26T07:52:35;97870.63;;;16.58;68.65
51123;BME280;37162;41.724;13.346;2022-12-26T07:55:01;97874.16;;;16.65;68.54
51123;BME280;37162;41.724;13.346;2022-12-26T07:57:28;97871.47;;;16.65;68.61
51123;BME280;37162;41.724;13.346;2022-12-26T07:59:54;97882.19;;;16.65;68.75
51123;BME280;37162;41.724;13.346;2022-12-26T08:02:19;97896.47;;;16.66;68.46
51123;BME280;37162;41.724;13.346;2022-12-26T08:04:44;97898.28;;;16.65;68.58
51123;BME280;37162;41.724;13.346;2022-12-26T08:07:10;97889.41;;;16.58;68.52
51123;BME280;37162;41.724;13.346;2022-12-26T08:09:35;97900.97;;;16.65;68.72
51123;BME280;37162;41.724;13.346;2022-12-26T08:12:02;97897.47;;;16.65;68.54
51123;BME280;37162;41.724;13.346;2022-12-26T08:14:28;97905.53;;;16.65;68.53
51123;BME280;37162;41.724;13.346;2022-12-26T08:16:53;97907.38;;;16.64;68.72
51123;BME280;37162;41.724;13.346;2022-12-26T08:19:18;97905.53;;;16.65;68.57
51123;BME280;37162;41.724;13.346;2022-12-26T08:21:44;97907.38;;;16.64;68.55
51123;BME280;37162;41.724;13.346;2022-12-26T08:24:09;97904.69;;;16.64;68.75
51123;BME280;37162;41.724;13.346;2022-12-26T08:26:35;97907.38;;;16.64;68.64
51123;BME280;37162;41.724;13.346;2022-12-26T08:29:00;97910.06;;;16.64;68.61
51123;BME280;37162;41.724;13.346;2022-12-26T08:31:25;97912.75;;;16.64;68.69
51123;BME280;37162;41.724;13.346;2022-12-26T08:33:54;97915.44;;;16.64;68.55
51123;BME280;37162;41.724;13.346;2022-12-26T08:36:21;97916.25;;;16.65;68.66
51123;BME280;37162;41.724;13.346;2022-12-26T08:38:46;97928.03;;;16.64;68.67
51123;BME280;37162;41.724;13.346;2022-12-26T08:41:12;97923.69;;;16.63;68.42
51123;BME280;37162;41.724;13.346;2022-12-26T08:43:37;97924.50;;;16.63;68.52
51123;BME280;37162;41.724;13.346;2022-12-26T08:46:05;97926.38;;;16.63;68.40
51123;BME280;37162;41.724;13.346;2022-12-26T08:48:31;97929.88;;;16.63;68.26
51123;BME280;37162;41.724;13.346;2022-12-26T08:50:59;97937.09;;;16.63;68.47
51123;BME280;37162;41.724;13.346;2022-12-26T08:53:27;97933.59;;;16.62;68.49
51123;BME280;37162;41.724;13.346;2022-12-26T08:55:53;97945.16;;;16.63;68.33
51123;BME280;37162;41.724;13.346;2022-12-26T08:58:19;97943.50;;;16.61;68.32
51123;BME280;37162;41.724;13.346;2022-12-26T09:00:45;97937.31;;;16.61;68.55
51123;BME280;37162;41.724;13.346;2022-12-26T09:03:11;97949.06;;;16.60;68.46
51123;BME280;37162;41.724;13.346;2022-12-26T09:05:36;97943.69;;;16.60;68.44
51123;BME280;37162;41.724;13.346;2022-12-26T09:08:02;97944.72;;;16.59;68.57
51123;BME280;37162;41.724;13.346;2022-12-26T09:10:27;97947.41;;;16.59;68.38
51123;BME280;37162;41.724;13.346;2022-12-26T09:12:52;97948.44;;;16.58;68.68
51123;BME280;37162;41.724;13.346;2022-12-26T09:15:18;97948.44;;;16.58;68.43
51123;BME280;37162;41.724;13.346;2022-12-26T09:17:43;97947.63;;;16.57;68.71
51123;BME280;37162;41.724;13.346;2022-12-26T09:20:09;97948.44;;;16.58;68.71
51123;BME280;37162;41.724;13.346;2022-12-26T09:22:34;97941.38;;;16.50;68.61
51123;BME280;37162;41.724;13.346;2022-12-26T09:25:17;97945.75;;;16.58;68.55
51123;BME280;37162;41.724;13.346;2022-12-26T09:27:42;97948.44;;;16.58;68.74
51123;BME280;37162;41.724;13.346;2022-12-26T09:30:08;97952.97;;;16.57;68.59
51123;BME280;37162;41.724;13.346;2022-12-26T09:32:34;97947.41;;;16.59;69.05
51123;BME280;37162;41.724;13.346;2022-12-26T09:35:00;97953.59;;;16.59;68.89
51123;BME280;37162;41.724;13.346;2022-12-26T09:37:26;97950.09;;;16.59;68.77
51123;BME280;37162;41.724;13.346;2022-12-26T09:39:51;97942.03;;;16.52;68.92
51123;BME280;37162;41.724;13.346;2022-12-26T09:42:34;97946.78;;;16.57;68.82
51123;BME280;37162;41.724;13.346;2022-12-26T09:45:15;97948.44;;;16.58;68.73
51123;BME280;37162;41.724;13.346;2022-12-26T09:47:51;97954.84;;;16.57;68.76
51123;BME280;37162;41.724;13.346;2022-12-26T09:50:28;97949.47;;;16.57;68.78
51123;BME280;37162;41.724;13.346;2022-12-26T09:52:57;97938.69;;;16.50;68.68
51123;BME280;37162;41.724;13.346;2022-12-26T09:58:12;97948.66;;;16.56;68.66
51123;BME280;37162;41.724;13.346;2022-12-26T10:01:16;97942.44;;;16.56;68.86
51123;BME280;37162;41.724;13.346;2022-12-26T10:03:53;97949.66;;;16.55;68.68
51123;BME280;37162;41.724;13.346;2022-12-26T10:17:41;97946.34;;;16.53;68.77
51123;BME280;37162;41.724;13.346;2022-12-26T10:20:37;97948.22;;;16.53;69.16
51123;BME280;37162;41.724;13.346;2022-12-26T10:23:12;97946.34;;;16.53;68.95
51123;BME280;37162;41.724;13.346;2022-12-26T10:25:44;97939.13;;;16.54;69.10
51123;BME280;37162;41.724;13.346;2022-12-26T10:28:37;97916.63;;;16.48;69.13
51123;BME280;37162;41.724;13.346;2022-12-26T10:31:41;97926.75;;;16.53;69.12
51123;BME280;37162;41.724;13.346;2022-12-26T10:34:29;97916.84;;;16.53;69.08
51123;BME280;37162;41.724;13.346;2022-12-26T10:37:32;97914.16;;;16.53;69.22
51123;BME280;37162;41.724;13.346;2022-12-26T10:42:34;97906.28;;;16.45;69.15
51123;BME280;37162;41.724;13.346;2022-12-26T10:45:00;97910.00;;;16.51;68.96
51123;BME280;37162;41.724;13.346;2022-12-26T10:47:32;97910.66;;;16.53;68.96
51123;BME280;37162;41.724;13.346;2022-12-26T10:50:02;97907.97;;;16.53;69.03
51123;BME280;37162;41.724;13.346;2022-12-26T10:52:37;97911.69;;;16.52;69.00
51123;BME280;37162;41.724;13.346;2022-12-26T10:55:03;97901.56;;;16.47;68.84
51123;BME280;37162;41.724;13.346;2022-12-26T10:57:34;97897.25;;;16.53;68.90
51123;BME280;37162;41.724;13.346;2022-12-26T11:00:06;97894.75;;;16.51;68.96
51123;BME280;37162;41.724;13.346;2022-12-26T11:02:38;97894.13;;;16.49;68.94
51123;BME280;37162;41.724;13.346;2022-12-26T11:05:12;97896.59;;;16.51;68.93
51123;BME280;37162;41.724;13.346;2022-12-26T11:07:49;97875.53;;;16.41;68.78
51123;BME280;37162;41.724;13.346;2022-12-26T11:10:21;97889.59;;;16.50;68.81
51123;BME280;37162;41.724;13.346;2022-12-26T11:13:01;97889.59;;;16.50;68.84
51123;BME280;37162;41.724;13.346;2022-12-26T11:17:54;97880.72;;;16.49;68.82
51123;BME280;37162;41.724;13.346;2022-12-26T11:20:31;97882.59;;;16.49;69.09
51123;BME280;37162;41.724;13.346;2022-12-26T11:25:47;97879.06;;;16.48;68.91
51123;BME280;37162;41.724;13.346;2022-12-26T11:28:29;97877.00;;;16.50;68.79
51123;BME280;37162;41.724;13.346;2022-12-26T11:30:55;97870.81;;;16.50;68.98
51123;BME280;37162;41.724;13.346;2022-12-26T11:33:35;97877.00;;;16.50;69.20
51123;BME280;37162;41.724;13.346;2022-12-26T11:38:58;97866.28;;;16.50;69.20
51123;BME280;37162;41.724;13.346;2022-12-26T11:44:34;97864.41;;;16.51;69.17
51123;BME280;37162;41.724;13.346;2022-12-26T11:47:09;97858.22;;;16.50;69.17
51123;BME280;37162;41.724;13.346;2022-12-26T11:52:29;97852.84;;;16.50;68.99
51123;BME280;37162;41.724;13.346;2022-12-26T11:54:49;97851.81;;;16.51;69.06
51123;BME280;37162;41.724;13.346;2022-12-26T11:57:18;97848.97;;;16.53;69.11
51123;BME280;37162;41.724;13.346;2022-12-26T11:59:45;97846.28;;;16.53;69.05
51123;BME280;37162;41.724;13.346;2022-12-26T12:04:46;97841.72;;;16.53;68.81
51123;BME280;37162;41.724;13.346;2022-12-26T12:15:12;97833.69;;;16.53;68.68
51123;BME280;37162;41.724;13.346;2022-12-26T12:18:05;97821.31;;;16.52;68.82
51123;BME280;37162;41.724;13.346;2022-12-26T12:20:45;97824.81;;;16.53;68.91
51123;BME280;37162;41.724;13.346;2022-12-26T12:25:54;97824.81;;;16.53;68.98
51123;BME280;37162;41.724;13.346;2022-12-26T12:34:15;97822.75;;;16.55;69.06
51123;BME280;37162;41.724;13.346;2022-12-26T12:45:22;97817.19;;;16.56;69.00
51123;BME280;37162;41.724;13.346;2022-12-26T12:50:39;97821.50;;;16.51;68.84
51123;BME280;37162;41.724;13.346;2022-12-26T12:53:34;97832.44;;;16.56;68.85
51123;BME280;37162;41.724;13.346;2022-12-26T13:01:45;97789.47;;;16.23;69.11
51123;BME280;37162;41.724;13.346;2022-12-26T13:04:17;97835.34;;;16.54;68.98
51123;BME280;37162;41.724;13.346;2022-12-26T13:06:46;97838.22;;;16.53;68.83
51123;BME280;37162;41.724;13.346;2022-12-26T13:09:27;97843.59;;;16.53;68.90
51123;BME280;37162;41.724;13.346;2022-12-26T13:11:59;97844.41;;;16.53;69.17
51123;BME280;37162;41.724;13.346;2022-12-26T13:14:39;97846.28;;;16.53;69.01
51123;BME280;37162;41.724;13.346;2022-12-26T13:17:09;97845.25;;;16.54;69.23
51123;BME280;37162;41.724;13.346;2022-12-26T13:22:44;97847.09;;;16.53;69.32
51123;BME280;37162;41.724;13.346;2022-12-26T13:25:36;97843.38;;;16.54;69.23
51123;BME280;37162;41.724;13.346;2022-12-26T13:28:15;97841.72;;;16.53;69.37
51123;BME280;37162;41.724;13.346;2022-12-26T13:30:41;97837.41;;;16.52;69.30
51123;BME280;37162;41.724;13.346;2022-12-26T13:33:13;97831.63;;;16.55;69.57
51123;BME280;37162;41.724;13.346;2022-12-26T13:35:59;97835.97;;;16.56;69.33
51123;BME280;37162;41.724;13.346;2022-12-26T13:41:24;97836.78;;;16.57;69.14
51123;BME280;37162;41.724;13.346;2022-12-26T13:49:32;97834.94;;;16.57;69.39
51123;BME280;37162;41.724;13.346;2022-12-26T14:17:18;97827.50;;;16.59;69.42
51123;BME280;37162;41.724;13.346;2022-12-26T14:22:54;97828.13;;;16.61;69.62
51123;BME280;37162;41.724;13.346;2022-12-26T14:25:48;97830.59;;;16.63;69.82
51123;BME280;37162;41.724;13.346;2022-12-26T14:31:28;97833.28;;;16.63;70.14
51123;BME280;37162;41.724;13.346;2022-12-26T14:36:48;97837.44;;;16.66;70.21
51123;BME280;37162;41.724;13.346;2022-12-26T14:44:51;97842.97;;;16.64;69.70
51123;BME280;37162;41.724;13.346;2022-12-26T14:47:44;97842.97;;;16.64;69.52
51123;BME280;37162;41.724;13.346;2022-12-26T14:50:41;97851.03;;;16.64;69.36
51123;BME280;37162;41.724;13.346;2022-12-26T15:04:00;97850.84;;;16.66;69.51
51123;BME280;37162;41.724;13.346;2022-12-26T15:32:11;97851.03;;;16.64;69.65
51123;BME280;37162;41.724;13.346;2022-12-26T15:40:13;97857.44;;;16.63;69.68
51123;BME280;37162;41.724;13.346;2022-12-26T15:45:46;97850.41;;;16.62;69.42
51123;BME280;37162;41.724;13.346;2022-12-26T15:51:09;97861.16;;;16.62;69.83
51123;BME280;37162;41.724;13.346;2022-12-26T16:01:50;97852.28;;;16.61;69.84
51123;BME280;37162;41.724;13.346;2022-12-26T16:04:31;97850.41;;;16.62;69.75
51123;BME280;37162;41.724;13.346;2022-12-26T16:09:45;97843.81;;;16.58;69.94
51123;BME280;37162;41.724;13.346;2022-12-26T16:14:46;97852.47;;;16.60;70.17
51123;BME280;37162;41.724;13.346;2022-12-26T16:19:37;97852.69;;;16.65;70.34
51123;BME280;37162;41.724;13.346;2022-12-26T16:22:06;97852.69;;;16.65;70.54
51123;BME280;37162;41.724;13.346;2022-12-26T16:24:52;97852.28;;;16.61;70.47
51123;BME280;37162;41.724;13.346;2022-12-26T16:27:22;97851.25;;;16.63;70.64
51123;BME280;37162;41.724;13.346;2022-12-26T16:29:51;97857.66;;;16.68;70.45
51123;BME280;37162;41.724;13.346;2022-12-26T16:32:20;97859.50;;;16.68;70.68
51123;BME280;37162;41.724;13.346;2022-12-26T16:34:48;97847.94;;;16.67;70.32
51123;BME280;37162;41.724;13.346;2022-12-26T16:37:23;97860.34;;;16.68;70.40
51123;BME280;37162;41.724;13.346;2022-12-26T16:45:43;97861.38;;;16.67;70.27
51123;BME280;37162;41.724;13.346;2022-12-26T16:48:13;97868.38;;;16.68;70.44
51123;BME280;37162;41.724;13.346;2022-12-26T16:50:57;97851.25;;;16.63;70.16
51123;BME280;37162;41.724;13.346;2022-12-26T16:53:41;97856.00;;;16.67;70.25
51123;BME280;37162;41.724;13.346;2022-12-26T16:58:41;97856.81;;;16.61;70.24
51123;BME280;37162;41.724;13.346;2022-12-26T17:01:13;97865.09;;;16.66;70.22
51123;BME280;37162;41.724;13.346;2022-12-26T17:03:50;97862.41;;;16.66;70.15